sensor_id;sensor_type;location;lat;lon;timestamp;temperature;humidity
71188;DHT22;58893;53.130;8.158;2022-12-17T00:02:05;0.70;72.60
71188;DHT22;58893;53.130;8.158;2022-12-17T00:04:49;0.60;72.60
71188;DHT22;58893;53.130;8.158;2022-12-17T00:07:58;0.60;72.10
71188;DHT22;58893;53.130;8.158;2022-12-17T00:10:42;0.60;71.80
71188;DHT22;58893;53.130;8.158;2022-12-17T00:13:27;0.60;71.70
71188;DHT22;58893;53.130;8.158;2022-12-17T00:16:11;0.50;71.50
71188;DHT22;58893;53.130;8.158;2022-12-17T00:18:55;0.50;71.60
71188;DHT22;58893;53.130;8.158;2022-12-17T00:21:39;0.50;71.50
71188;DHT22;58893;53.130;8.158;2022-12-17T00:24:23;0.50;71.40
71188;DHT22;58893;53.130;8.158;2022-12-17T00:27:07;0.50;71.30
71188;DHT22;58893;53.130;8.158;2022-12-17T00:29:51;0.50;71.20
71188;DHT22;58893;53.130;8.158;2022-12-17T00:32:35;0.50;71.10
71188;DHT22;58893;53.130;8.158;2022-12-17T00:35:19;0.50;71.00
71188;DHT22;58893;53.130;8.158;2022-12-17T00:38:03;0.50;71.00
71188;DHT22;58893;53.130;8.158;2022-12-17T00:40:52;0.50;71.10
71188;DHT22;58893;53.130;8.158;2022-12-17T00:43:36;0.60;71.20
71188;DHT22;58893;53.130;8.158;2022-12-17T00:46:20;0.50;71.10
71188;DHT22;58893;53.130;8.158;2022-12-17T00:49:05;0.50;71.20
71188;DHT22;58893;53.130;8.158;2022-12-17T00:51:49;0.50;71.30
71188;DHT22;58893;53.130;8.158;2022-12-17T00:54:33;0.50;71.30
71188;DHT22;58893;53.130;8.158;2022-12-17T00:57:17;0.50;71.20
71188;DHT22;58893;53.130;8.158;2022-12-17T01:00:01;0.50;71.30
71188;DHT22;58893;53.130;8.158;2022-12-17T01:02:45;0.50;71.20
71188;DHT22;58893;53.130;8.158;2022-12-17T01:05:29;0.50;71.20
71188;DHT22;58893;53.130;8.158;2022-12-17T01:08:14;0.50;71.20
71188;DHT22;58893;53.130;8.158;2022-12-17T01:11:03;0.40;71.30
71188;DHT22;58893;53.130;8.158;2022-12-17T01:13:48;0.40;71.40
71188;DHT22;58893;53.130;8.158;2022-12-17T01:16:33;0.50;70.40
71188;DHT22;58893;53.130;8.158;2022-12-17T01:19:17;0.40;70.20
71188;DHT22;58893;53.130;8.158;2022-12-17T01:22:01;0.40;70.30
71188;DHT22;58893;53.130;8.158;2022-12-17T01:24:45;0.40;72.10
71188;DHT22;58893;53.130;8.158;2022-12-17T01:27:29;0.40;70.30
71188;DHT22;58893;53.130;8.158;2022-12-17T01:30:13;0.40;70.30
71188;DHT22;58893;53.130;8.158;2022-12-17T01:33:05;0.40;70.40
71188;DHT22;58893;53.130;8.158;2022-12-17T01:35:57;0.40;70.30
71188;DHT22;58893;53.130;8.158;2022-12-17T01:38:42;0.30;70.20
71188;DHT22;58893;53.130;8.158;2022-12-17T01:41:26;0.40;70.10
71188;DHT22;58893;53.130;8.158;2022-12-17T01:47:24;0.30;69.70
71188;DHT22;58893;53.130;8.158;2022-12-17T01:50:09;0.30;69.70
71188;DHT22;58893;53.130;8.158;2022-12-17T01:52:56;0.30;69.70
71188;DHT22;58893;53.130;8.158;2022-12-17T01:55:42;0.30;69.60
71188;DHT22;58893;53.130;8.158;2022-12-17T01:58:28;0.30;69.50
71188;DHT22;58893;53.130;8.158;2022-12-17T02:01:12;0.30;69.50
71188;DHT22;58893;53.130;8.158;2022-12-17T02:03:56;0.30;69.60
71188;DHT22;58893;53.130;8.158;2022-12-17T02:06:45;0.30;69.40
71188;DHT22;58893;53.130;8.158;2022-12-17T02:09:45;0.30;69.40
71188;DHT22;58893;53.130;8.158;2022-12-17T02:12:46;0.30;69.30
71188;DHT22;58893;53.130;8.158;2022-12-17T02:15:35;0.20;69.30
71188;DHT22;58893;53.130;8.158;2022-12-17T02:18:24;0.20;69.30
71188;DHT22;58893;53.130;8.158;2022-12-17T02:21:12;0.20;69.30
71188;DHT22;58893;53.130;8.158;2022-12-17T02:24:07;0.20;69.30
71188;DHT22;58893;53.130;8.158;2022-12-17T02:26:57;0.20;69.10
71188;DHT22;58893;53.130;8.158;2022-12-17T02:29:45;0.20;68.90
71188;DHT22;58893;53.130;8.158;2022-12-17T02:32:33;0.20;68.80
71188;DHT22;58893;53.130;8.158;2022-12-17T02:35:21;0.20;68.80
71188;DHT22;58893;53.130;8.158;2022-12-17T02:38:18;0.20;68.80
71188;DHT22;58893;53.130;8.158;2022-12-17T02:41:05;0.20;68.70
71188;DHT22;58893;53.130;8.158;2022-12-17T02:43:50;0.20;68.60
71188;DHT22;58893;53.130;8.158;2022-12-17T02:46:37;0.20;68.40
71188;DHT22;58893;53.130;8.158;2022-12-17T02:49:22;0.20;68.40
71188;DHT22;58893;53.130;8.158;2022-12-17T02:52:07;0.10;68.20
71188;DHT22;58893;53.130;8.158;2022-12-17T02:54:52;0.10;68.20
71188;DHT22;58893;53.130;8.158;2022-12-17T02:57:36;0.10;68.20
71188;DHT22;58893;53.130;8.158;2022-12-17T03:00:20;0.10;68.20
71188;DHT22;58893;53.130;8.158;2022-12-17T03:03:04;0.10;68.20
71188;DHT22;58893;53.130;8.158;2022-12-17T03:05:48;0.10;68.40
71188;DHT22;58893;53.130;8.158;2022-12-17T03:08:32;0.10;68.40
71188;DHT22;58893;53.130;8.158;2022-12-17T03:11:16;0.10;68.60
71188;DHT22;58893;53.130;8.158;2022-12-17T03:14:00;0.10;68.70
71188;DHT22;58893;53.130;8.158;2022-12-17T03:16:44;0.10;68.70
71188;DHT22;58893;53.130;8.158;2022-12-17T03:19:28;0.10;68.90
71188;DHT22;58893;53.130;8.158;2022-12-17T03:22:12;0.10;68.90
71188;DHT22;58893;53.130;8.158;2022-12-17T03:24:56;0.10;68.90
71188;DHT22;58893;53.130;8.158;2022-12-17T03:27:41;0.10;69.10
71188;DHT22;58893;53.130;8.158;2022-12-17T03:30:25;0.10;69.10
71188;DHT22;58893;53.130;8.158;2022-12-17T03:33:09;0.10;69.30
71188;DHT22;58893;53.130;8.158;2022-12-17T03:35:53;0.10;69.30
71188;DHT22;58893;53.130;8.158;2022-12-17T03:38:37;0.10;69.40
71188;DHT22;58893;53.130;8.158;2022-12-17T03:41:22;0.10;69.50
71188;DHT22;58893;53.130;8.158;2022-12-17T03:44:06;0.10;69.60
71188;DHT22;58893;53.130;8.158;2022-12-17T03:46:50;0.10;69.60
71188;DHT22;58893;53.130;8.158;2022-12-17T03:49:34;0.20;69.70
71188;DHT22;58893;53.130;8.158;2022-12-17T03:52:18;0.20;69.60
71188;DHT22;58893;53.130;8.158;2022-12-17T03:55:02;0.20;69.60
71188;DHT22;58893;53.130;8.158;2022-12-17T03:57:47;0.10;69.50
71188;DHT22;58893;53.130;8.158;2022-12-17T04:00:31;0.10;69.60
71188;DHT22;58893;53.130;8.158;2022-12-17T04:03:15;0.20;69.80
71188;DHT22;58893;53.130;8.158;2022-12-17T04:05:59;0.10;69.70
71188;DHT22;58893;53.130;8.158;2022-12-17T04:08:43;0.10;69.80
71188;DHT22;58893;53.130;8.158;2022-12-17T04:11:27;0.10;69.80
71188;DHT22;58893;53.130;8.158;2022-12-17T04:14:11;0.20;69.70
71188;DHT22;58893;53.130;8.158;2022-12-17T04:16:55;0.20;69.70
71188;DHT22;58893;53.130;8.158;2022-12-17T04:19:39;0.20;69.70
71188;DHT22;58893;53.130;8.158;2022-12-17T04:22:23;0.20;69.80
71188;DHT22;58893;53.130;8.158;2022-12-17T04:25:07;0.20;69.80
71188;DHT22;58893;53.130;8.158;2022-12-17T04:27:51;0.20;70.00
71188;DHT22;58893;53.130;8.158;2022-12-17T04:30:35;0.20;70.10
71188;DHT22;58893;53.130;8.158;2022-12-17T04:33:20;0.20;70.30
71188;DHT22;58893;53.130;8.158;2022-12-17T04:36:04;0.20;70.40
71188;DHT22;58893;53.130;8.158;2022-12-17T04:38:48;0.30;70.60
71188;DHT22;58893;53.130;8.158;2022-12-17T04:41:32;0.30;70.80
71188;DHT22;58893;53.130;8.158;2022-12-17T04:44:16;0.30;71.00
71188;DHT22;58893;53.130;8.158;2022-12-17T04:47:07;0.30;71.30
71188;DHT22;58893;53.130;8.158;2022-12-17T04:49:52;0.30;71.40
71188;DHT22;58893;53.130;8.158;2022-12-17T04:52:36;0.30;71.60
71188;DHT22;58893;53.130;8.158;2022-12-17T04:55:20;0.30;71.70
71188;DHT22;58893;53.130;8.158;2022-12-17T04:58:05;0.30;71.90
71188;DHT22;58893;53.130;8.158;2022-12-17T05:00:53;0.40;72.10
71188;DHT22;58893;53.130;8.158;2022-12-17T05:03:37;0.40;72.20
71188;DHT22;58893;53.130;8.158;2022-12-17T05:06:23;0.40;72.20
71188;DHT22;58893;53.130;8.158;2022-12-17T05:09:07;0.40;72.30
71188;DHT22;58893;53.130;8.158;2022-12-17T05:11:51;0.40;72.30
71188;DHT22;58893;53.130;8.158;2022-12-17T05:14:35;0.50;72.40
71188;DHT22;58893;53.130;8.158;2022-12-17T05:17:19;0.50;72.50
71188;DHT22;58893;53.130;8.158;2022-12-17T05:20:04;0.50;72.50
71188;DHT22;58893;53.130;8.158;2022-12-17T05:22:48;0.50;72.70
71188;DHT22;58893;53.130;8.158;2022-12-17T05:25:32;0.50;72.80
71188;DHT22;58893;53.130;8.158;2022-12-17T05:28:16;0.50;72.80
71188;DHT22;58893;53.130;8.158;2022-12-17T05:31:01;0.50;73.00
71188;DHT22;58893;53.130;8.158;2022-12-17T05:33:45;0.60;73.10
71188;DHT22;58893;53.130;8.158;2022-12-17T05:36:29;0.60;73.10
71188;DHT22;58893;53.130;8.158;2022-12-17T05:39:33;0.60;73.10
71188;DHT22;58893;53.130;8.158;2022-12-17T05:42:17;0.60;73.10
71188;DHT22;58893;53.130;8.158;2022-12-17T05:45:01;0.60;73.10
71188;DHT22;58893;53.130;8.158;2022-12-17T05:47:45;0.60;73.20
71188;DHT22;58893;53.130;8.158;2022-12-17T05:50:29;0.60;73.20
71188;DHT22;58893;53.130;8.158;2022-12-17T05:53:13;0.60;73.30
71188;DHT22;58893;53.130;8.158;2022-12-17T05:55:58;0.70;73.40
71188;DHT22;58893;53.130;8.158;2022-12-17T05:58:41;0.70;73.50
71188;DHT22;58893;53.130;8.158;2022-12-17T06:01:25;0.70;73.60
71188;DHT22;58893;53.130;8.158;2022-12-17T06:04:10;0.70;73.80
71188;DHT22;58893;53.130;8.158;2022-12-17T06:06:54;0.90;75.30
71188;DHT22;58893;53.130;8.158;2022-12-17T06:09:38;0.70;74.10
71188;DHT22;58893;53.130;8.158;2022-12-17T06:12:22;0.70;74.20
71188;DHT22;58893;53.130;8.158;2022-12-17T06:15:06;0.70;74.50
71188;DHT22;58893;53.130;8.158;2022-12-17T06:17:52;0.70;74.30
71188;DHT22;58893;53.130;8.158;2022-12-17T06:20:36;0.70;74.20
71188;DHT22;58893;53.130;8.158;2022-12-17T06:23:21;0.80;74.40
71188;DHT22;58893;53.130;8.158;2022-12-17T06:26:05;0.80;74.50
71188;DHT22;58893;53.130;8.158;2022-12-17T06:28:49;0.80;74.50
71188;DHT22;58893;53.130;8.158;2022-12-17T06:31:33;0.80;74.60
71188;DHT22;58893;53.130;8.158;2022-12-17T06:34:17;0.80;74.60
71188;DHT22;58893;53.130;8.158;2022-12-17T06:37:01;0.80;74.60
71188;DHT22;58893;53.130;8.158;2022-12-17T06:39:45;0.80;74.70
71188;DHT22;58893;53.130;8.158;2022-12-17T06:42:29;0.80;74.70
71188;DHT22;58893;53.130;8.158;2022-12-17T06:45:13;0.90;74.90
71188;DHT22;58893;53.130;8.158;2022-12-17T06:48:06;0.90;74.90
71188;DHT22;58893;53.130;8.158;2022-12-17T06:50:53;0.90;74.90
71188;DHT22;58893;53.130;8.158;2022-12-17T06:53:37;0.90;75.00
71188;DHT22;58893;53.130;8.158;2022-12-17T06:56:21;0.90;75.00
71188;DHT22;58893;53.130;8.158;2022-12-17T06:59:05;0.90;75.70
71188;DHT22;58893;53.130;8.158;2022-12-17T07:01:49;0.90;75.20
71188;DHT22;58893;53.130;8.158;2022-12-17T07:04:33;1.00;75.30
71188;DHT22;58893;53.130;8.158;2022-12-17T07:07:17;1.00;75.40
71188;DHT22;58893;53.130;8.158;2022-12-17T07:10:02;1.00;75.40
71188;DHT22;58893;53.130;8.158;2022-12-17T07:12:46;1.00;75.40
71188;DHT22;58893;53.130;8.158;2022-12-17T07:15:30;1.00;75.40
71188;DHT22;58893;53.130;8.158;2022-12-17T07:18:14;1.00;75.40
71188;DHT22;58893;53.130;8.158;2022-12-17T07:20:58;1.00;75.40
71188;DHT22;58893;53.130;8.158;2022-12-17T07:23:42;1.00;75.50
71188;DHT22;58893;53.130;8.158;2022-12-17T07:26:27;1.00;75.50
71188;DHT22;58893;53.130;8.158;2022-12-17T07:29:11;1.10;75.60
71188;DHT22;58893;53.130;8.158;2022-12-17T07:31:55;1.10;75.50
71188;DHT22;58893;53.130;8.158;2022-12-17T07:34:58;1.10;75.50
71188;DHT22;58893;53.130;8.158;2022-12-17T07:37:43;1.10;75.50
71188;DHT22;58893;53.130;8.158;2022-12-17T07:40:27;1.10;75.40
71188;DHT22;58893;53.130;8.158;2022-12-17T07:43:28;1.10;75.40
71188;DHT22;58893;53.130;8.158;2022-12-17T07:46:12;1.10;75.30
71188;DHT22;58893;53.130;8.158;2022-12-17T07:48:56;1.10;75.40
71188;DHT22;58893;53.130;8.158;2022-12-17T07:51:40;1.10;75.40
71188;DHT22;58893;53.130;8.158;2022-12-17T07:54:25;1.10;75.40
71188;DHT22;58893;53.130;8.158;2022-12-17T07:57:09;1.10;75.40
71188;DHT22;58893;53.130;8.158;2022-12-17T07:59:53;1.10;75.40
71188;DHT22;58893;53.130;8.158;2022-12-17T08:02:37;1.10;75.40
71188;DHT22;58893;53.130;8.158;2022-12-17T08:05:21;1.10;75.30
71188;DHT22;58893;53.130;8.158;2022-12-17T08:08:09;1.10;75.10
71188;DHT22;58893;53.130;8.158;2022-12-17T08:10:53;1.30;82.60
71188;DHT22;58893;53.130;8.158;2022-12-17T08:13:37;1.70;85.20
71188;DHT22;58893;53.130;8.158;2022-12-17T08:16:21;2.00;81.60
71188;DHT22;58893;53.130;8.158;2022-12-17T08:19:05;2.00;78.40
71188;DHT22;58893;53.130;8.158;2022-12-17T08:21:49;2.00;77.20
71188;DHT22;58893;53.130;8.158;2022-12-17T08:24:33;1.90;76.30
71188;DHT22;58893;53.130;8.158;2022-12-17T08:27:17;1.80;75.70
71188;DHT22;58893;53.130;8.158;2022-12-17T08:30:02;1.70;75.40
71188;DHT22;58893;53.130;8.158;2022-12-17T08:32:46;1.60;75.10
71188;DHT22;58893;53.130;8.158;2022-12-17T08:35:30;1.50;75.00
71188;DHT22;58893;53.130;8.158;2022-12-17T08:38:14;1.50;74.90
71188;DHT22;58893;53.130;8.158;2022-12-17T08:40:59;1.50;74.80
71188;DHT22;58893;53.130;8.158;2022-12-17T08:43:43;1.40;74.60
71188;DHT22;58893;53.130;8.158;2022-12-17T08:46:27;1.40;74.60
71188;DHT22;58893;53.130;8.158;2022-12-17T08:49:11;1.40;74.70
71188;DHT22;58893;53.130;8.158;2022-12-17T08:51:55;1.30;74.60
71188;DHT22;58893;53.130;8.158;2022-12-17T08:54:39;1.30;74.70
71188;DHT22;58893;53.130;8.158;2022-12-17T08:57:23;1.30;74.70
71188;DHT22;58893;53.130;8.158;2022-12-17T09:00:09;1.30;74.60
71188;DHT22;58893;53.130;8.158;2022-12-17T09:03:00;1.30;74.50
71188;DHT22;58893;53.130;8.158;2022-12-17T09:05:45;1.30;74.30
71188;DHT22;58893;53.130;8.158;2022-12-17T09:08:30;1.20;74.10
71188;DHT22;58893;53.130;8.158;2022-12-17T09:11:14;1.20;73.90
71188;DHT22;58893;53.130;8.158;2022-12-17T09:13:58;1.20;73.90
71188;DHT22;58893;53.130;8.158;2022-12-17T09:16:42;1.20;73.80
71188;DHT22;58893;53.130;8.158;2022-12-17T09:19:27;1.20;73.80
71188;DHT22;58893;53.130;8.158;2022-12-17T09:22:12;1.20;73.70
71188;DHT22;58893;53.130;8.158;2022-12-17T09:24:56;1.20;73.60
71188;DHT22;58893;53.130;8.158;2022-12-17T09:27:40;1.10;73.40
71188;DHT22;58893;53.130;8.158;2022-12-17T09:30:24;1.20;73.30
71188;DHT22;58893;53.130;8.158;2022-12-17T09:33:13;1.10;73.10
71188;DHT22;58893;53.130;8.158;2022-12-17T09:35:58;1.10;72.90
71188;DHT22;58893;53.130;8.158;2022-12-17T09:38:42;1.10;72.70
71188;DHT22;58893;53.130;8.158;2022-12-17T09:41:29;1.10;72.60
71188;DHT22;58893;53.130;8.158;2022-12-17T09:44:24;1.10;72.50
71188;DHT22;58893;53.130;8.158;2022-12-17T09:47:34;1.10;72.40
71188;DHT22;58893;53.130;8.158;2022-12-17T09:50:20;1.10;72.40
71188;DHT22;58893;53.130;8.158;2022-12-17T09:53:20;1.10;72.50
71188;DHT22;58893;53.130;8.158;2022-12-17T09:56:08;1.10;72.50
71188;DHT22;58893;53.130;8.158;2022-12-17T09:58:54;1.10;72.40
71188;DHT22;58893;53.130;8.158;2022-12-17T10:01:39;1.10;72.50
71188;DHT22;58893;53.130;8.158;2022-12-17T10:04:33;1.10;72.50
71188;DHT22;58893;53.130;8.158;2022-12-17T10:07:27;1.10;72.40
71188;DHT22;58893;53.130;8.158;2022-12-17T10:10:35;1.10;72.40
71188;DHT22;58893;53.130;8.158;2022-12-17T10:13:23;1.10;72.30
71188;DHT22;58893;53.130;8.158;2022-12-17T10:16:32;1.10;72.90
71188;DHT22;58893;53.130;8.158;2022-12-17T10:19:31;1.10;72.20
71188;DHT22;58893;53.130;8.158;2022-12-17T10:22:18;1.10;72.00
71188;DHT22;58893;53.130;8.158;2022-12-17T10:28:20;1.10;71.20
71188;DHT22;58893;53.130;8.158;2022-12-17T10:31:18;1.10;71.40
71188;DHT22;58893;53.130;8.158;2022-12-17T10:34:06;1.00;71.20
71188;DHT22;58893;53.130;8.158;2022-12-17T10:36:51;1.00;71.10
71188;DHT22;58893;53.130;8.158;2022-12-17T10:39:36;1.00;71.00
71188;DHT22;58893;53.130;8.158;2022-12-17T10:42:27;1.00;71.00
71188;DHT22;58893;53.130;8.158;2022-12-17T10:48:25;1.00;70.80
71188;DHT22;58893;53.130;8.158;2022-12-17T10:57:05;1.00;70.80
71188;DHT22;58893;53.130;8.158;2022-12-17T10:59:50;1.00;70.80
71188;DHT22;58893;53.130;8.158;2022-12-17T11:02:35;1.00;70.70
71188;DHT22;58893;53.130;8.158;2022-12-17T11:05:26;1.00;70.80
71188;DHT22;58893;53.130;8.158;2022-12-17T11:08:12;1.00;70.80
71188;DHT22;58893;53.130;8.158;2022-12-17T11:11:00;1.00;70.80
71188;DHT22;58893;53.130;8.158;2022-12-17T11:13:52;1.00;71.40
71188;DHT22;58893;53.130;8.158;2022-12-17T11:16:52;1.00;70.70
71188;DHT22;58893;53.130;8.158;2022-12-17T11:19:53;1.00;70.70
71188;DHT22;58893;53.130;8.158;2022-12-17T11:22:46;1.00;70.80
71188;DHT22;58893;53.130;8.158;2022-12-17T11:25:52;1.00;70.90
71188;DHT22;58893;53.130;8.158;2022-12-17T11:28:37;1.00;71.70
71188;DHT22;58893;53.130;8.158;2022-12-17T11:34:54;1.00;71.20
71188;DHT22;58893;53.130;8.158;2022-12-17T11:38:37;1.00;71.30
71188;DHT22;58893;53.130;8.158;2022-12-17T11:44:31;1.00;71.60
71188;DHT22;58893;53.130;8.158;2022-12-17T11:47:36;1.00;71.70
71188;DHT22;58893;53.130;8.158;2022-12-17T11:50:43;1.00;71.90
71188;DHT22;58893;53.130;8.158;2022-12-17T11:54:10;1.10;72.10
71188;DHT22;58893;53.130;8.158;2022-12-17T12:00:00;1.10;72.10
71188;DHT22;58893;53.130;8.158;2022-12-17T12:03:26;1.10;72.30
71188;DHT22;58893;53.130;8.158;2022-12-17T12:06:19;1.10;72.30
71188;DHT22;58893;53.130;8.158;2022-12-17T12:12:12;1.20;72.50
71188;DHT22;58893;53.130;8.158;2022-12-17T12:15:07;1.20;72.60
71188;DHT22;58893;53.130;8.158;2022-12-17T12:17:59;1.20;72.70
71188;DHT22;58893;53.130;8.158;2022-12-17T12:35:59;1.30;73.30
71188;DHT22;58893;53.130;8.158;2022-12-17T12:38:50;1.30;73.40
71188;DHT22;58893;53.130;8.158;2022-12-17T12:48:02;1.30;73.60
71188;DHT22;58893;53.130;8.158;2022-12-17T12:51:27;1.40;73.90
71188;DHT22;58893;53.130;8.158;2022-12-17T13:06:45;1.50;74.40
71188;DHT22;58893;53.130;8.158;2022-12-17T13:09:18;1.50;74.50
71188;DHT22;58893;53.130;8.158;2022-12-17T13:11:47;1.50;74.60
71188;DHT22;58893;53.130;8.158;2022-12-17T13:17:31;1.50;74.70
71188;DHT22;58893;53.130;8.158;2022-12-17T13:22:51;1.60;74.90
71188;DHT22;58893;53.130;8.158;2022-12-17T13:25:18;1.60;74.90
71188;DHT22;58893;53.130;8.158;2022-12-17T13:27:44;1.60;75.00
71188;DHT22;58893;53.130;8.158;2022-12-17T13:38:58;1.60;74.80
71188;DHT22;58893;53.130;8.158;2022-12-17T13:41:34;1.60;74.80
71188;DHT22;58893;53.130;8.158;2022-12-17T13:44:21;1.60;74.80
71188;DHT22;58893;53.130;8.158;2022-12-17T13:46:49;1.60;74.90
71188;DHT22;58893;53.130;8.158;2022-12-17T13:49:21;1.60;75.00
71188;DHT22;58893;53.130;8.158;2022-12-17T13:51:47;1.60;75.10
71188;DHT22;58893;53.130;8.158;2022-12-17T13:54:23;1.60;75.30
71188;DHT22;58893;53.130;8.158;2022-12-17T13:56:49;1.60;75.30
71188;DHT22;58893;53.130;8.158;2022-12-17T13:59:20;1.60;75.20
71188;DHT22;58893;53.130;8.158;2022-12-17T14:01:51;1.60;75.20
71188;DHT22;58893;53.130;8.158;2022-12-17T14:04:28;1.60;75.10
71188;DHT22;58893;53.130;8.158;2022-12-17T14:06:59;1.60;75.10
71188;DHT22;58893;53.130;8.158;2022-12-17T14:09:34;1.60;75.30
71188;DHT22;58893;53.130;8.158;2022-12-17T14:12:03;1.60;75.40
71188;DHT22;58893;53.130;8.158;2022-12-17T14:15:04;1.60;75.50
71188;DHT22;58893;53.130;8.158;2022-12-17T14:17:39;1.70;75.60
71188;DHT22;58893;53.130;8.158;2022-12-17T14:20:10;1.70;75.60
71188;DHT22;58893;53.130;8.158;2022-12-17T14:22:42;1.70;75.50
71188;DHT22;58893;53.130;8.158;2022-12-17T14:25:31;1.70;75.40
71188;DHT22;58893;53.130;8.158;2022-12-17T14:28:01;1.70;75.50
71188;DHT22;58893;53.130;8.158;2022-12-17T14:30:39;1.70;75.50
71188;DHT22;58893;53.130;8.158;2022-12-17T14:35:54;1.70;75.60
71188;DHT22;58893;53.130;8.158;2022-12-17T14:38:20;1.70;75.60
71188;DHT22;58893;53.130;8.158;2022-12-17T14:40:46;1.70;75.60
71188;DHT22;58893;53.130;8.158;2022-12-17T14:43:13;1.70;75.60
71188;DHT22;58893;53.130;8.158;2022-12-17T14:45:51;1.70;75.60
71188;DHT22;58893;53.130;8.158;2022-12-17T14:48:36;1.70;75.60
71188;DHT22;58893;53.130;8.158;2022-12-17T14:51:31;1.70;75.60
71188;DHT22;58893;53.130;8.158;2022-12-17T14:56:43;1.70;75.60
71188;DHT22;58893;53.130;8.158;2022-12-17T15:01:47;1.60;75.60
71188;DHT22;58893;53.130;8.158;2022-12-17T15:04:14;1.60;75.60
71188;DHT22;58893;53.130;8.158;2022-12-17T15:06:40;1.60;75.40
71188;DHT22;58893;53.130;8.158;2022-12-17T15:09:06;1.60;75.30
71188;DHT22;58893;53.130;8.158;2022-12-17T15:11:31;1.60;75.10
71188;DHT22;58893;53.130;8.158;2022-12-17T15:13:57;1.60;75.10
71188;DHT22;58893;53.130;8.158;2022-12-17T15:16:22;1.60;75.00
71188;DHT22;58893;53.130;8.158;2022-12-17T15:18:48;1.60;75.00
71188;DHT22;58893;53.130;8.158;2022-12-17T15:21:14;1.60;75.00
71188;DHT22;58893;53.130;8.158;2022-12-17T15:23:42;1.60;75.10
71188;DHT22;58893;53.130;8.158;2022-12-17T15:26:08;1.60;75.10
71188;DHT22;58893;53.130;8.158;2022-12-17T15:28:35;1.60;75.10
71188;DHT22;58893;53.130;8.158;2022-12-17T15:31:00;1.60;75.10
71188;DHT22;58893;53.130;8.158;2022-12-17T15:33:26;1.60;75.20
71188;DHT22;58893;53.130;8.158;2022-12-17T15:35:51;1.60;75.20
71188;DHT22;58893;53.130;8.158;2022-12-17T15:38:17;1.60;75.20
71188;DHT22;58893;53.130;8.158;2022-12-17T15:40:42;1.60;75.30
71188;DHT22;58893;53.130;8.158;2022-12-17T15:43:12;1.60;75.30
71188;DHT22;58893;53.130;8.158;2022-12-17T15:45:43;1.60;75.90
71188;DHT22;58893;53.130;8.158;2022-12-17T15:48:10;1.60;75.30
71188;DHT22;58893;53.130;8.158;2022-12-17T15:50:36;1.60;75.30
71188;DHT22;58893;53.130;8.158;2022-12-17T15:53:02;1.60;75.30
71188;DHT22;58893;53.130;8.158;2022-12-17T15:55:28;1.60;75.20
71188;DHT22;58893;53.130;8.158;2022-12-17T15:57:54;1.60;75.20
71188;DHT22;58893;53.130;8.158;2022-12-17T16:00:20;1.60;75.30
71188;DHT22;58893;53.130;8.158;2022-12-17T16:02:47;1.60;75.20
71188;DHT22;58893;53.130;8.158;2022-12-17T16:05:13;1.60;75.10
71188;DHT22;58893;53.130;8.158;2022-12-17T16:07:38;1.50;74.90
71188;DHT22;58893;53.130;8.158;2022-12-17T16:10:05;1.50;74.90
71188;DHT22;58893;53.130;8.158;2022-12-17T16:12:31;1.50;74.90
71188;DHT22;58893;53.130;8.158;2022-12-17T16:15:00;1.50;74.80
71188;DHT22;58893;53.130;8.158;2022-12-17T16:17:25;1.50;74.90
71188;DHT22;58893;53.130;8.158;2022-12-17T16:19:51;1.50;74.80
71188;DHT22;58893;53.130;8.158;2022-12-17T16:22:17;1.50;74.80
71188;DHT22;58893;53.130;8.158;2022-12-17T16:24:42;1.50;74.80
71188;DHT22;58893;53.130;8.158;2022-12-17T16:27:08;1.50;74.90
71188;DHT22;58893;53.130;8.158;2022-12-17T16:29:33;1.50;74.90
71188;DHT22;58893;53.130;8.158;2022-12-17T16:31:59;1.50;75.00
71188;DHT22;58893;53.130;8.158;2022-12-17T16:34:25;1.50;75.00
71188;DHT22;58893;53.130;8.158;2022-12-17T16:36:51;1.50;75.10
71188;DHT22;58893;53.130;8.158;2022-12-17T16:39:18;1.50;75.00
71188;DHT22;58893;53.130;8.158;2022-12-17T16:41:44;1.50;75.00
71188;DHT22;58893;53.130;8.158;2022-12-17T16:44:10;1.50;74.90
71188;DHT22;58893;53.130;8.158;2022-12-17T16:46:39;1.50;74.80
71188;DHT22;58893;53.130;8.158;2022-12-17T16:49:07;1.50;74.70
71188;DHT22;58893;53.130;8.158;2022-12-17T16:51:33;1.50;74.70
71188;DHT22;58893;53.130;8.158;2022-12-17T16:54:03;1.40;74.60
71188;DHT22;58893;53.130;8.158;2022-12-17T16:56:29;1.40;74.60
71188;DHT22;58893;53.130;8.158;2022-12-17T16:58:55;1.40;74.60
71188;DHT22;58893;53.130;8.158;2022-12-17T17:01:24;1.40;74.60
71188;DHT22;58893;53.130;8.158;2022-12-17T17:03:50;1.40;74.60
71188;DHT22;58893;53.130;8.158;2022-12-17T17:06:17;1.40;74.60
71188;DHT22;58893;53.130;8.158;2022-12-17T17:08:44;1.40;74.60
71188;DHT22;58893;53.130;8.158;2022-12-17T17:11:21;1.40;74.50
71188;DHT22;58893;53.130;8.158;2022-12-17T17:13:49;1.40;74.30
71188;DHT22;58893;53.130;8.158;2022-12-17T17:16:16;1.40;74.20
71188;DHT22;58893;53.130;8.158;2022-12-17T17:18:42;1.40;74.10
71188;DHT22;58893;53.130;8.158;2022-12-17T17:21:29;1.40;74.10
71188;DHT22;58893;53.130;8.158;2022-12-17T17:24:00;1.40;74.00
71188;DHT22;58893;53.130;8.158;2022-12-17T17:26:28;1.30;73.90
71188;DHT22;58893;53.130;8.158;2022-12-17T17:28:54;1.30;73.90
71188;DHT22;58893;53.130;8.158;2022-12-17T17:31:21;1.30;73.90
71188;DHT22;58893;53.130;8.158;2022-12-17T17:33:47;1.30;73.80
71188;DHT22;58893;53.130;8.158;2022-12-17T17:36:20;1.30;73.80
71188;DHT22;58893;53.130;8.158;2022-12-17T17:38:47;1.30;73.70
71188;DHT22;58893;53.130;8.158;2022-12-17T17:41:15;1.30;73.70
71188;DHT22;58893;53.130;8.158;2022-12-17T17:43:41;1.30;73.70
71188;DHT22;58893;53.130;8.158;2022-12-17T17:46:08;1.30;73.70
71188;DHT22;58893;53.130;8.158;2022-12-17T17:48:35;1.30;73.80
71188;DHT22;58893;53.130;8.158;2022-12-17T17:51:15;1.30;73.90
71188;DHT22;58893;53.130;8.158;2022-12-17T17:53:43;1.30;73.90
71188;DHT22;58893;53.130;8.158;2022-12-17T17:56:11;1.30;73.90
71188;DHT22;58893;53.130;8.158;2022-12-17T17:58:41;1.30;73.90
71188;DHT22;58893;53.130;8.158;2022-12-17T18:01:09;1.30;73.90
71188;DHT22;58893;53.130;8.158;2022-12-17T18:03:37;1.30;73.90
71188;DHT22;58893;53.130;8.158;2022-12-17T18:06:10;1.30;73.90
71188;DHT22;58893;53.130;8.158;2022-12-17T18:08:36;1.30;73.90
71188;DHT22;58893;53.130;8.158;2022-12-17T18:11:04;1.30;73.90
71188;DHT22;58893;53.130;8.158;2022-12-17T18:13:31;1.30;73.90
71188;DHT22;58893;53.130;8.158;2022-12-17T18:16:16;1.30;73.90
71188;DHT22;58893;53.130;8.158;2022-12-17T18:18:42;1.30;73.90
71188;DHT22;58893;53.130;8.158;2022-12-17T18:21:11;1.30;73.90
71188;DHT22;58893;53.130;8.158;2022-12-17T18:23:37;1.30;73.80
71188;DHT22;58893;53.130;8.158;2022-12-17T18:26:16;1.20;73.60
71188;DHT22;58893;53.130;8.158;2022-12-17T18:28:43;1.20;73.40
71188;DHT22;58893;53.130;8.158;2022-12-17T18:31:15;1.20;73.30
71188;DHT22;58893;53.130;8.158;2022-12-17T18:33:43;1.20;73.20
71188;DHT22;58893;53.130;8.158;2022-12-17T18:36:15;1.20;73.10
71188;DHT22;58893;53.130;8.158;2022-12-17T18:38:41;1.20;73.00
71188;DHT22;58893;53.130;8.158;2022-12-17T18:41:15;1.20;73.00